createdAt,value
2022-12-06T00:01:25.641Z,4.10
2022-12-06T00:03:55.921Z,4.10
2022-12-06T00:06:25.200Z,4.10
2022-12-06T00:08:52.939Z,4.10
2022-12-06T00:11:28.832Z,4.00
2022-12-06T00:13:58.117Z,4.00
2022-12-06T00:16:26.588Z,4.00
2022-12-06T00:18:54.341Z,4.10
2022-12-06T00:21:28.514Z,4.10
2022-12-06T00:23:58.641Z,4.00
2022-12-06T00:26:26.572Z,4.00
2022-12-06T00:28:55.899Z,4.00
2022-12-06T00:31:25.533Z,4.00
2022-12-06T00:33:53.072Z,3.90
2022-12-06T00:36:26.241Z,3.90
2022-12-06T00:38:53.554Z,3.90
2022-12-06T00:41:23.241Z,3.90
2022-12-06T00:43:51.691Z,3.80
2022-12-06T00:46:24.191Z,3.80
2022-12-06T00:48:52.854Z,3.80
2022-12-06T00:51:21.271Z,3.80
2022-12-06T00:53:49.041Z,3.80
2022-12-06T00:56:16.735Z,3.80
2022-12-06T00:58:44.423Z,3.80
2022-12-06T01:01:15.988Z,3.80
2022-12-06T01:03:44.891Z,3.80
2022-12-06T01:06:14.804Z,3.80
2022-12-06T01:08:42.992Z,3.80
2022-12-06T01:11:11.811Z,3.70
2022-12-06T01:13:39.272Z,3.70
2022-12-06T01:16:13.318Z,3.70
2022-12-06T01:18:41.622Z,3.60
2022-12-06T01:21:12.091Z,3.60
2022-12-06T01:23:39.315Z,3.60
2022-12-06T01:26:07.322Z,3.60
2022-12-06T01:28:35.015Z,3.60
2022-12-06T01:31:07.960Z,3.60
2022-12-06T01:33:35.471Z,3.60
2022-12-06T01:36:02.802Z,3.50
2022-12-06T01:38:30.093Z,3.50
2022-12-06T01:40:57.822Z,3.50
2022-12-06T01:43:32.453Z,3.50
2022-12-06T01:46:17.016Z,3.50
2022-12-06T01:48:44.771Z,3.50
2022-12-06T01:51:13.943Z,3.60
2022-12-06T01:53:43.932Z,3.60
2022-12-06T01:56:11.652Z,3.60
2022-12-06T01:58:41.642Z,3.50
2022-12-06T02:01:10.219Z,3.50
2022-12-06T02:03:38.052Z,3.50
2022-12-06T02:06:08.731Z,3.50
2022-12-06T02:08:36.911Z,3.50
2022-12-06T02:11:05.142Z,3.40
2022-12-06T02:13:35.385Z,3.40
2022-12-06T02:16:17.930Z,3.40
2022-12-06T02:19:30.592Z,3.40
2022-12-06T02:22:06.862Z,3.40
2022-12-06T02:25:34.220Z,3.40
2022-12-06T02:28:30.862Z,3.40
2022-12-06T02:31:18.647Z,3.40
2022-12-06T02:33:59.334Z,3.30
2022-12-06T02:36:44.262Z,3.30
2022-12-06T02:39:33.536Z,3.30
2022-12-06T02:42:09.010Z,3.30
2022-12-06T02:44:42.361Z,3.30
2022-12-06T02:47:14.572Z,3.30
2022-12-06T02:49:46.812Z,3.30
2022-12-06T02:52:15.192Z,3.30
2022-12-06T02:54:45.713Z,3.30
2022-12-06T02:57:12.903Z,3.30
2022-12-06T02:59:40.032Z,3.30
2022-12-06T03:02:11.405Z,3.30
2022-12-06T03:04:53.983Z,3.20
2022-12-06T03:07:28.852Z,3.20
2022-12-06T03:10:16.210Z,3.10
2022-12-06T03:13:01.242Z,3.10
2022-12-06T03:16:02.759Z,3.10
2022-12-06T03:18:32.932Z,3.10
2022-12-06T03:21:08.231Z,3.10
2022-12-06T03:23:42.153Z,3.00
2022-12-06T03:26:11.361Z,3.00
2022-12-06T03:28:39.445Z,3.10
2022-12-06T03:31:12.713Z,3.10
2022-12-06T03:34:05.183Z,3.10
2022-12-06T03:36:33.392Z,3.10
2022-12-06T03:39:06.134Z,3.10
2022-12-06T03:41:38.732Z,3.00
2022-12-06T03:44:05.973Z,3.00
2022-12-06T03:46:41.575Z,3.00
2022-12-06T03:49:14.932Z,3.00
2022-12-06T03:51:44.349Z,3.00
2022-12-06T03:54:12.192Z,3.00
2022-12-06T03:56:39.931Z,3.00
2022-12-06T03:59:09.550Z,3.00
2022-12-06T04:01:37.482Z,3.00
2022-12-06T04:04:05.232Z,3.00
2022-12-06T04:06:32.869Z,3.00
2022-12-06T04:09:19.135Z,3.10
2022-12-06T04:11:46.690Z,3.10
2022-12-06T04:14:14.070Z,3.10
2022-12-06T04:16:59.984Z,3.10
2022-12-06T04:19:27.360Z,3.10
2022-12-06T04:22:13.249Z,3.10
2022-12-06T04:24:40.472Z,3.10
2022-12-06T04:27:26.110Z,3.10
2022-12-06T04:30:11.742Z,3.20
2022-12-06T04:32:57.619Z,3.20
2022-12-06T04:35:43.460Z,3.20
2022-12-06T04:38:29.329Z,3.20
2022-12-06T04:40:56.571Z,3.20
2022-12-06T04:43:42.302Z,3.20
2022-12-06T04:46:11.828Z,3.20
2022-12-06T04:48:39.319Z,3.20
2022-12-06T04:51:06.909Z,3.30
2022-12-06T04:53:34.150Z,3.20
2022-12-06T04:56:01.889Z,3.20
2022-12-06T04:58:29.171Z,3.20
2022-12-06T05:00:56.439Z,3.10
2022-12-06T05:03:23.705Z,3.00
2022-12-06T05:05:51.056Z,3.00
2022-12-06T05:08:18.321Z,2.90
2022-12-06T05:10:52.221Z,2.90
2022-12-06T05:13:20.055Z,3.00
2022-12-06T05:15:52.222Z,3.00
2022-12-06T05:18:19.727Z,2.90
2022-12-06T05:20:47.009Z,2.90
2022-12-06T05:23:14.386Z,2.80
2022-12-06T05:25:41.615Z,2.80
2022-12-06T05:28:11.615Z,2.70
2022-12-06T05:30:38.833Z,2.70
2022-12-06T05:33:06.039Z,2.70
2022-12-06T05:35:33.194Z,2.70
2022-12-06T05:38:00.436Z,2.70
2022-12-06T05:40:27.646Z,2.60
2022-12-06T05:42:54.827Z,2.60
2022-12-06T05:45:22.055Z,2.60
2022-12-06T05:47:49.285Z,2.50
2022-12-06T05:50:16.505Z,2.60
2022-12-06T05:52:43.745Z,2.50
2022-12-06T05:55:10.935Z,2.50
2022-12-06T05:57:41.230Z,2.50
2022-12-06T06:00:13.585Z,2.50
2022-12-06T06:02:40.806Z,2.50
2022-12-06T06:05:08.565Z,2.50
2022-12-06T06:07:36.212Z,2.50
2022-12-06T06:10:04.775Z,2.40
2022-12-06T06:12:31.966Z,2.40
2022-12-06T06:14:59.283Z,2.40
2022-12-06T06:17:26.435Z,2.40
2022-12-06T06:19:53.615Z,2.30
2022-12-06T06:22:23.225Z,2.20
2022-12-06T06:24:51.745Z,2.20
2022-12-06T06:27:18.893Z,2.10
2022-12-06T06:29:46.145Z,2.00
2022-12-06T06:32:13.941Z,2.00
2022-12-06T06:34:41.304Z,1.90
2022-12-06T06:37:08.505Z,1.90
2022-12-06T06:39:35.635Z,1.80
2022-12-06T06:42:02.796Z,1.80
2022-12-06T06:44:30.114Z,1.80
2022-12-06T06:46:57.376Z,1.80
2022-12-06T06:49:24.877Z,1.80
2022-12-06T06:51:52.078Z,1.80
2022-12-06T06:54:19.258Z,1.70
2022-12-06T06:56:46.416Z,1.80
2022-12-06T06:59:13.625Z,1.70
2022-12-06T07:01:40.857Z,1.80
2022-12-06T07:04:08.095Z,1.80
2022-12-06T07:06:35.285Z,1.80
2022-12-06T07:09:02.611Z,1.80
2022-12-06T07:11:30.035Z,1.80
2022-12-06T07:13:57.336Z,1.80
2022-12-06T07:16:24.599Z,1.80
2022-12-06T07:18:51.906Z,1.80
2022-12-06T07:21:19.175Z,1.80
2022-12-06T07:23:46.747Z,1.80
2022-12-06T07:26:17.735Z,1.80
2022-12-06T07:28:46.226Z,1.90
2022-12-06T07:31:16.268Z,1.80
2022-12-06T07:33:44.804Z,1.80
2022-12-06T07:36:14.204Z,1.90
2022-12-06T07:38:43.299Z,1.90
2022-12-06T07:41:32.039Z,1.90
2022-12-06T07:44:19.938Z,1.90
2022-12-06T07:46:48.166Z,2.00
2022-12-06T07:49:18.628Z,2.10
2022-12-06T07:51:46.255Z,2.10
2022-12-06T07:54:15.300Z,2.10
2022-12-06T07:56:43.386Z,2.20
2022-12-06T07:59:11.256Z,2.20
2022-12-06T08:01:38.725Z,2.30
2022-12-06T08:04:07.012Z,2.40
2022-12-06T08:06:34.831Z,2.40
2022-12-06T08:09:02.196Z,2.50
2022-12-06T08:11:29.455Z,2.50
2022-12-06T08:13:56.611Z,2.40
2022-12-06T08:16:23.991Z,2.40
2022-12-06T08:18:52.786Z,2.50
2022-12-06T08:21:20.125Z,2.50
2022-12-06T08:23:47.338Z,2.60
2022-12-06T08:26:16.206Z,2.60
2022-12-06T08:28:43.568Z,2.60
2022-12-06T08:31:15.196Z,2.60
2022-12-06T08:33:43.005Z,2.60
2022-12-06T08:36:12.851Z,2.60
2022-12-06T08:38:40.786Z,2.60
2022-12-06T08:41:29.477Z,2.60
2022-12-06T08:43:58.025Z,2.60
2022-12-06T08:46:25.672Z,2.60
2022-12-06T08:48:53.536Z,2.70
2022-12-06T08:51:20.795Z,2.70
2022-12-06T08:53:48.206Z,2.70
2022-12-06T08:56:15.975Z,2.70
2022-12-06T08:58:43.367Z,2.80
2022-12-06T09:01:23.371Z,2.80
2022-12-06T09:03:51.135Z,2.80
2022-12-06T09:06:19.533Z,2.90
2022-12-06T09:08:47.886Z,2.90
2022-12-06T09:11:16.206Z,2.90
2022-12-06T09:13:44.214Z,3.00
2022-12-06T09:16:19.867Z,3.00
2022-12-06T09:18:48.089Z,3.10
2022-12-06T09:21:19.096Z,3.10
2022-12-06T09:23:46.661Z,3.10
2022-12-06T09:26:14.167Z,3.20
2022-12-06T09:28:42.955Z,3.20
2022-12-06T09:31:10.500Z,3.20
2022-12-06T09:33:38.415Z,3.20
2022-12-06T09:36:16.225Z,3.30
2022-12-06T09:38:45.407Z,3.30
2022-12-06T09:41:43.436Z,3.40
2022-12-06T09:44:49.986Z,3.40
2022-12-06T09:47:29.207Z,3.50
2022-12-06T09:50:29.008Z,3.60
2022-12-06T09:53:14.849Z,3.60
2022-12-06T09:55:50.798Z,3.70
2022-12-06T09:58:47.119Z,3.80
2022-12-06T10:01:39.754Z,3.80
2022-12-06T10:04:25.537Z,3.90
2022-12-06T10:07:19.304Z,4.00
2022-12-06T10:10:16.718Z,4.10
2022-12-06T10:12:50.000Z,4.10
2022-12-06T10:15:30.558Z,4.10
2022-12-06T10:18:01.240Z,4.10
2022-12-06T10:20:43.575Z,4.10
2022-12-06T10:23:21.920Z,4.20
2022-12-06T10:26:15.647Z,4.30
2022-12-06T10:28:48.479Z,4.40
2022-12-06T10:31:27.730Z,4.50
2022-12-06T10:34:06.417Z,4.50
2022-12-06T10:36:42.269Z,4.40
2022-12-06T10:39:41.057Z,4.40
2022-12-06T10:42:27.069Z,4.40
2022-12-06T10:45:47.636Z,4.50
2022-12-06T10:48:43.659Z,4.40
2022-12-06T10:51:21.438Z,4.40
2022-12-06T10:53:54.903Z,4.40
2022-12-06T10:56:35.077Z,4.30
2022-12-06T10:59:13.872Z,4.30
2022-12-06T11:01:43.771Z,4.30
2022-12-06T11:04:36.140Z,4.40
2022-12-06T11:07:14.048Z,4.50
2022-12-06T11:09:48.592Z,4.60
2022-12-06T11:12:33.870Z,4.60
2022-12-06T11:15:15.667Z,4.70
2022-12-06T11:17:48.118Z,4.70
2022-12-06T11:20:26.058Z,4.80
2022-12-06T11:23:11.197Z,4.80
2022-12-06T11:26:04.820Z,4.80
2022-12-06T11:28:35.845Z,4.80
2022-12-06T11:31:10.023Z,4.70
2022-12-06T11:33:37.559Z,4.70
2022-12-06T11:36:07.218Z,4.70
2022-12-06T11:38:37.367Z,4.70
2022-12-06T11:41:10.080Z,4.80
2022-12-06T11:43:37.997Z,4.90
2022-12-06T11:46:07.246Z,4.90
2022-12-06T11:48:35.828Z,4.90
2022-12-06T11:51:03.191Z,5.00
2022-12-06T11:54:16.060Z,5.00
2022-12-06T11:56:43.619Z,5.10
2022-12-06T11:59:28.818Z,5.10
2022-12-06T12:02:00.980Z,5.10
2022-12-06T12:04:34.038Z,5.10
2022-12-06T12:07:10.450Z,5.20
2022-12-06T12:10:02.963Z,5.20
2022-12-06T12:13:07.100Z,5.20
2022-12-06T12:15:36.099Z,5.20
2022-12-06T12:18:05.858Z,5.10
2022-12-06T12:20:44.856Z,5.20
2022-12-06T12:23:27.807Z,5.20
2022-12-06T12:26:15.367Z,5.30
2022-12-06T12:28:45.058Z,5.40
2022-12-06T12:31:22.528Z,5.50
2022-12-06T12:34:20.498Z,5.60
2022-12-06T12:37:20.008Z,5.70
2022-12-06T12:42:36.757Z,5.80
2022-12-06T12:45:06.254Z,5.80
2022-12-06T12:47:33.579Z,5.90
2022-12-06T12:50:18.766Z,5.90
2022-12-06T12:52:46.908Z,5.90
2022-12-06T12:55:19.247Z,6.00
2022-12-06T12:57:52.141Z,6.10
2022-12-06T13:00:21.417Z,6.20
2022-12-06T13:02:58.968Z,6.20
2022-12-06T13:05:36.342Z,6.30
2022-12-06T13:08:15.391Z,6.30
2022-12-06T13:10:46.958Z,6.30
2022-12-06T13:13:22.080Z,6.30
2022-12-06T13:15:52.579Z,6.30
2022-12-06T13:18:41.647Z,6.30
2022-12-06T13:21:32.020Z,6.40
2022-12-06T13:24:13.691Z,6.40
2022-12-06T13:26:49.829Z,6.50
2022-12-06T13:29:33.699Z,6.50
2022-12-06T13:32:26.728Z,6.60
2022-12-06T13:35:20.442Z,6.60
2022-12-06T13:37:56.080Z,6.50
2022-12-06T13:40:52.437Z,6.40
2022-12-06T13:43:25.501Z,6.40
2022-12-06T13:46:26.612Z,6.40
2022-12-06T13:49:22.778Z,6.40
2022-12-06T13:51:50.297Z,6.40
2022-12-06T13:54:17.458Z,6.40
2022-12-06T13:56:44.971Z,6.50
2022-12-06T13:59:12.181Z,6.50
2022-12-06T14:01:58.853Z,6.50
2022-12-06T14:09:49.708Z,6.50
2022-12-06T14:12:26.008Z,6.40
2022-12-06T14:15:01.706Z,6.50
2022-12-06T14:20:31.147Z,6.50
2022-12-06T14:22:58.781Z,6.50
2022-12-06T14:25:29.800Z,6.50
2022-12-06T14:28:06.918Z,6.50
2022-12-06T14:30:34.483Z,6.50
2022-12-06T14:33:01.880Z,6.60
2022-12-06T14:35:36.350Z,6.60
2022-12-06T14:38:25.417Z,6.60
2022-12-06T14:41:11.728Z,6.50
2022-12-06T14:43:39.679Z,6.50
2022-12-06T14:46:12.068Z,6.40
2022-12-06T14:48:57.837Z,6.40
2022-12-06T14:51:27.712Z,6.40
2022-12-06T14:53:54.937Z,6.30
2022-12-06T14:56:25.217Z,6.30
2022-12-06T14:58:52.899Z,6.30
2022-12-06T15:01:26.777Z,6.20
2022-12-06T15:04:16.936Z,6.20
2022-12-06T15:06:53.338Z,6.10
2022-12-06T15:09:22.427Z,6.00
2022-12-06T15:12:08.407Z,5.90
2022-12-06T15:14:35.657Z,5.90
2022-12-06T15:17:10.597Z,5.80
2022-12-06T15:19:50.897Z,5.70
2022-12-06T15:22:25.461Z,5.60
2022-12-06T15:24:55.647Z,5.50
2022-12-06T15:27:26.707Z,5.50
2022-12-06T15:29:54.452Z,5.40
2022-12-06T15:32:23.897Z,5.40
2022-12-06T15:34:51.147Z,5.40
2022-12-06T15:40:06.312Z,5.30
2022-12-06T15:42:33.527Z,5.30
2022-12-06T15:45:01.408Z,5.20
2022-12-06T15:47:28.807Z,5.20
2022-12-06T15:49:58.495Z,5.10
2022-12-06T15:52:26.917Z,5.10
2022-12-06T15:54:54.146Z,5.10
2022-12-06T15:57:21.357Z,5.00
2022-12-06T15:59:48.554Z,5.00
2022-12-06T16:02:18.018Z,5.00
2022-12-06T16:04:45.936Z,4.90
2022-12-06T16:07:19.054Z,4.90
2022-12-06T16:09:47.257Z,4.80
2022-12-06T16:12:14.471Z,4.80
2022-12-06T16:14:41.727Z,4.70
2022-12-06T16:17:08.986Z,4.70
2022-12-06T16:19:54.528Z,4.70
2022-12-06T16:22:44.426Z,4.70
2022-12-06T16:25:11.708Z,4.70
2022-12-06T16:27:38.947Z,4.70
2022-12-06T16:32:48.170Z,4.70
2022-12-06T16:35:15.387Z,4.70
2022-12-06T16:37:42.587Z,4.70
2022-12-06T16:40:20.517Z,4.70
2022-12-06T16:42:47.736Z,4.70
2022-12-06T16:45:15.866Z,4.70
2022-12-06T16:47:45.588Z,4.70
2022-12-06T16:50:23.986Z,4.70
2022-12-06T16:52:52.437Z,4.60
2022-12-06T16:55:20.137Z,4.60
2022-12-06T16:57:47.487Z,4.70
2022-12-06T17:00:15.379Z,4.70
2022-12-06T17:02:44.566Z,4.70
2022-12-06T17:05:19.656Z,4.70
2022-12-06T17:07:47.413Z,4.70
2022-12-06T17:10:16.056Z,4.70
2022-12-06T17:12:43.597Z,4.70
2022-12-06T17:15:17.976Z,4.70
2022-12-06T17:17:45.447Z,4.70
2022-12-06T17:20:46.166Z,4.70
2022-12-06T17:23:15.616Z,4.70
2022-12-06T17:25:43.176Z,4.80
2022-12-06T17:28:10.376Z,4.70
2022-12-06T17:30:53.510Z,4.70
2022-12-06T17:33:20.787Z,4.80
2022-12-06T17:35:47.977Z,4.80
2022-12-06T17:38:15.249Z,4.80
2022-12-06T17:40:42.448Z,4.80
2022-12-06T17:43:10.096Z,4.80
2022-12-06T17:45:37.288Z,4.90
2022-12-06T17:48:04.893Z,4.90
2022-12-06T17:50:46.817Z,4.80
2022-12-06T17:53:19.596Z,4.80
2022-12-06T17:56:33.947Z,4.80
2022-12-06T18:02:15.523Z,4.90
2022-12-06T18:04:44.117Z,4.80
2022-12-06T18:07:13.115Z,4.80
2022-12-06T18:09:40.519Z,4.80
2022-12-06T18:12:12.492Z,4.80
2022-12-06T18:14:39.851Z,4.90
2022-12-06T18:17:07.222Z,4.80
2022-12-06T18:19:35.065Z,4.80
2022-12-06T18:22:02.411Z,4.80
2022-12-06T18:24:35.365Z,4.80
2022-12-06T18:27:07.305Z,4.80
2022-12-06T18:29:34.846Z,4.70
2022-12-06T18:32:02.443Z,4.70
2022-12-06T18:34:29.896Z,4.70
2022-12-06T18:36:57.057Z,4.80
2022-12-06T18:39:28.127Z,4.80
2022-12-06T18:41:55.756Z,4.80
2022-12-06T18:44:23.527Z,4.80
2022-12-06T18:46:51.036Z,4.80
2022-12-06T18:49:18.567Z,4.90
2022-12-06T18:51:46.040Z,4.90
2022-12-06T18:54:14.299Z,4.80
2022-12-06T18:56:42.580Z,4.80
2022-12-06T18:59:11.922Z,4.80
2022-12-06T19:01:40.741Z,4.70
2022-12-06T19:04:13.379Z,4.80
2022-12-06T19:06:40.687Z,4.70
2022-12-06T19:09:11.817Z,4.70
2022-12-06T19:11:41.170Z,4.70
2022-12-06T19:14:08.989Z,4.70
2022-12-06T19:16:45.415Z,4.80
2022-12-06T19:19:31.079Z,4.70
2022-12-06T19:21:58.445Z,4.80
2022-12-06T19:24:26.849Z,4.80
2022-12-06T19:27:20.609Z,4.80
2022-12-06T19:30:08.354Z,4.80
2022-12-06T19:33:00.112Z,4.80
2022-12-06T19:35:42.066Z,4.80
2022-12-06T19:38:36.841Z,4.80
2022-12-06T19:41:23.998Z,4.80
2022-12-06T19:44:21.712Z,4.80
2022-12-06T19:47:04.406Z,4.80
2022-12-06T19:49:34.876Z,4.70
2022-12-06T19:52:02.276Z,4.80
2022-12-06T19:54:32.607Z,4.80
2022-12-06T19:57:01.134Z,4.80
2022-12-06T19:59:34.826Z,4.80
2022-12-06T20:02:14.956Z,4.80
2022-12-06T20:05:20.959Z,4.80
2022-12-06T20:07:56.960Z,4.80
2022-12-06T20:10:27.077Z,4.80
2022-12-06T20:12:54.368Z,4.80
2022-12-06T20:15:21.518Z,4.90
2022-12-06T20:17:48.687Z,4.90
2022-12-06T20:20:15.978Z,4.90
2022-12-06T20:22:43.269Z,4.80
2022-12-06T20:25:10.447Z,4.80
2022-12-06T20:27:52.576Z,4.80
2022-12-06T20:30:21.867Z,4.70
2022-12-06T20:32:49.948Z,4.70
2022-12-06T20:35:17.347Z,4.70
2022-12-06T20:37:44.518Z,4.70
2022-12-06T20:40:12.311Z,4.70
2022-12-06T20:42:39.617Z,4.70
2022-12-06T20:45:07.291Z,4.60
2022-12-06T20:47:34.458Z,4.60
2022-12-06T20:50:01.936Z,4.60
2022-12-06T20:52:29.497Z,4.60
2022-12-06T20:54:56.787Z,4.50
2022-12-06T20:57:24.236Z,4.50
2022-12-06T20:59:51.427Z,4.50
2022-12-06T21:02:18.635Z,4.50
2022-12-06T21:04:45.872Z,4.50
2022-12-06T21:07:13.016Z,4.40
2022-12-06T21:12:53.155Z,4.40
2022-12-06T21:15:20.444Z,4.40
2022-12-06T21:17:47.602Z,4.40
2022-12-06T21:20:14.930Z,4.30
2022-12-06T21:22:42.077Z,4.30
2022-12-06T21:25:09.646Z,4.30
2022-12-06T21:27:36.820Z,4.30
2022-12-06T21:30:04.616Z,4.30
2022-12-06T21:32:31.936Z,4.30
2022-12-06T21:34:59.387Z,4.20
2022-12-06T21:37:26.756Z,4.20
2022-12-06T21:39:53.926Z,4.10
2022-12-06T21:42:21.827Z,4.00
2022-12-06T21:44:49.230Z,3.90
2022-12-06T21:47:16.476Z,3.90
2022-12-06T21:49:43.753Z,3.90
2022-12-06T21:52:10.913Z,3.90
2022-12-06T21:54:38.073Z,3.90
2022-12-06T21:57:05.282Z,3.90
2022-12-06T21:59:32.452Z,3.80
2022-12-06T22:01:59.650Z,3.80
2022-12-06T22:04:26.935Z,3.80
2022-12-06T22:06:54.092Z,3.80
2022-12-06T22:09:21.282Z,3.80
2022-12-06T22:11:48.775Z,3.70
2022-12-06T22:14:15.973Z,3.70
2022-12-06T22:16:43.602Z,3.60
2022-12-06T22:19:10.843Z,3.60
2022-12-06T22:21:38.083Z,3.60
2022-12-06T22:24:05.446Z,3.50
2022-12-06T22:26:32.633Z,3.50
2022-12-06T22:29:00.814Z,3.50
2022-12-06T22:31:30.480Z,3.50
2022-12-06T22:33:58.296Z,3.50
2022-12-06T22:36:25.963Z,3.40
2022-12-06T22:38:55.580Z,3.50
2022-12-06T22:41:24.003Z,3.50
2022-12-06T22:43:56.723Z,3.50
2022-12-06T22:46:24.183Z,3.50
2022-12-06T22:48:51.473Z,3.50
2022-12-06T22:51:24.513Z,3.50
2022-12-06T22:54:03.212Z,3.50
2022-12-06T22:56:31.364Z,3.40
2022-12-06T22:58:59.864Z,3.40
2022-12-06T23:01:32.480Z,3.40
2022-12-06T23:04:01.747Z,3.40
2022-12-06T23:06:29.342Z,3.40
2022-12-06T23:08:56.955Z,3.40
2022-12-06T23:11:30.246Z,3.40
2022-12-06T23:13:58.512Z,3.40
2022-12-06T23:16:28.399Z,3.40
2022-12-06T23:18:56.696Z,3.40
2022-12-06T23:21:32.334Z,3.40
2022-12-06T23:24:02.559Z,3.40
2022-12-06T23:26:32.771Z,3.40
2022-12-06T23:29:00.404Z,3.30
2022-12-06T23:31:30.122Z,3.30
2022-12-06T23:34:04.733Z,3.30
2022-12-06T23:36:33.903Z,3.30
2022-12-06T23:39:01.352Z,3.30
2022-12-06T23:41:30.283Z,3.30
2022-12-06T23:43:58.826Z,3.30
2022-12-06T23:46:29.405Z,3.30
2022-12-06T23:48:57.543Z,3.30
2022-12-06T23:51:34.200Z,3.30
2022-12-06T23:54:03.335Z,3.30
2022-12-06T23:56:33.532Z,3.20
2022-12-06T23:59:01.701Z,3.20
